Time;durP1;ratioP1;P1;durP2;ratioP2;P2;SDS_P1;SDS_P2;PMS_P1;PMS_P2;Temp;Humidity;BMP_temperature;BMP_pressure;BME280_temperature;BME280_humidity;BME280_pressure;Samples;Min_cycle;Max_cycle;Signal;HPM_P1;HPM_P2
2023/12/28 00:01:28;;;;;;;9.77;7.10;;;;;;;;;;4994348;28;20413;-72
2023/12/28 00:03:54;;;;;;;11.00;6.57;;;;;;;;;;4993263;28;20425;-71
2023/12/28 00:06:20;;;;;;;7.87;6.40;;;;;;;;;;4994159;28;20453;-72
2023/12/28 00:08:46;;;;;;;13.97;7.60;;;;;;;;;;4994357;28;20778;-72
2023/12/28 00:11:12;;;;;;;10.40;7.10;;;;;;;;;;4994167;28;20830;-72
2023/12/28 00:13:38;;;;;;;10.07;5.57;;;;;;;;;;4994327;28;20456;-72
2023/12/28 00:16:04;;;;;;;8.67;5.10;;;;;;;;;;4994161;28;20954;-71
2023/12/28 00:18:30;;;;;;;9.30;5.50;;;;;;;;;;4994120;28;20778;-71
2023/12/28 00:20:56;;;;;;;6.33;4.60;;;;;;;;;;4993931;28;20210;-72
2023/12/28 00:23:22;;;;;;;6.35;5.15;;;;;;;;;;4992846;28;20859;-72
2023/12/28 00:25:48;;;;;;;6.43;4.10;;;;;;;;;;4994015;28;20285;-72
2023/12/28 00:28:14;;;;;;;5.77;3.47;;;;;;;;;;4994024;28;20414;-73
2023/12/28 00:30:40;;;;;;;7.30;3.67;;;;;;;;;;4993699;28;20424;-72
2023/12/28 00:33:06;;;;;;;8.10;3.73;;;;;;;;;;4993834;28;20465;-71
2023/12/28 00:35:32;;;;;;;7.67;4.17;;;;;;;;;;4993615;28;20416;-71
2023/12/28 00:37:58;;;;;;;8.47;4.40;;;;;;;;;;4992556;28;20416;-71
2023/12/28 00:40:24;;;;;;;5.60;4.33;;;;;;;;;;4993501;28;20437;-71
2023/12/28 00:42:50;;;;;;;9.97;4.50;;;;;;;;;;4993692;28;20418;-71
2023/12/28 00:45:16;;;;;;;7.67;4.30;;;;;;;;;;4993306;28;20436;-71
2023/12/28 00:47:44;;;;;;;7.90;5.57;;;;;;;;;;4993582;28;20436;-71
2023/12/28 00:50:11;;;;;;;5.72;5.00;;;;;;;;;;4991965;28;20483;-71
2023/12/28 00:52:37;;;;;;;6.35;5.00;;;;;;;;;;4992369;28;20626;-71
2023/12/28 00:55:04;;;;;;;9.65;6.07;;;;;;;;;;4993534;28;20639;-70
2023/12/28 00:57:30;;;;;;;8.40;5.22;;;;;;;;;;4993278;28;20647;-70
2023/12/28 00:59:56;;;;;;;7.80;5.10;;;;;;;;;;4991908;28;20276;-70
2023/12/28 01:02:22;;;;;;;6.00;4.97;;;;;;;;;;4993278;28;20417;-70
2023/12/28 01:04:47;;;;;;;6.13;3.57;;;;;;;;;;4993562;28;20440;-71
2023/12/28 01:07:13;;;;;;;6.00;4.47;;;;;;;;;;5034206;23;20490;-70
2023/12/28 01:09:42;;;;;;;7.90;4.83;;;;;;;;;;5024270;28;20440;-71
2023/12/28 01:12:11;;;;;;;8.55;5.45;;;;;;;;;;5025255;28;20480;-70
2023/12/28 01:14:37;;;;;;;7.28;4.80;;;;;;;;;;5021569;28;20194;-70
2023/12/28 01:17:03;;;;;;;7.38;4.93;;;;;;;;;;5022058;28;20208;-70
2023/12/28 01:19:29;;;;;;;8.43;3.97;;;;;;;;;;5022145;28;20201;-70
2023/12/28 01:21:55;;;;;;;4.93;3.17;;;;;;;;;;5022765;28;20238;-70
2023/12/28 01:24:22;;;;;;;5.45;4.38;;;;;;;;;;5022947;28;20404;-69
2023/12/28 01:26:47;;;;;;;9.13;5.68;;;;;;;;;;5023265;28;20626;-69
2023/12/28 01:29:13;;;;;;;7.00;4.70;;;;;;;;;;5023072;28;20173;-70
2023/12/28 01:31:40;;;;;;;5.43;4.57;;;;;;;;;;5023214;28;20408;-70
2023/12/28 01:34:06;;;;;;;7.32;5.03;;;;;;;;;;5021197;28;20209;-70
2023/12/28 01:36:32;;;;;;;10.82;5.65;;;;;;;;;;5022546;28;20191;-71
2023/12/28 01:38:58;;;;;;;8.77;4.77;;;;;;;;;;5021425;28;20174;-70
2023/12/28 01:41:24;;;;;;;7.10;6.23;;;;;;;;;;5022002;28;20423;-68
2023/12/28 01:43:50;;;;;;;7.38;3.85;;;;;;;;;;5021756;28;20420;-69
2023/12/28 01:46:17;;;;;;;6.57;4.97;;;;;;;;;;5020249;28;20204;-69
2023/12/28 01:48:44;;;;;;;6.30;4.88;;;;;;;;;;5020401;28;20512;-69
2023/12/28 01:51:10;;;;;;;6.15;4.35;;;;;;;;;;5019362;28;20231;-68
2023/12/28 01:53:37;;;;;;;7.20;4.22;;;;;;;;;;5020770;28;20223;-68
2023/12/28 01:56:03;;;;;;;6.93;4.88;;;;;;;;;;5021222;28;20227;-69
2023/12/28 01:58:29;;;;;;;6.85;3.85;;;;;;;;;;5024446;28;20543;-69
2023/12/28 02:00:56;;;;;;;5.05;3.63;;;;;;;;;;5024358;28;20238;-69
2023/12/28 02:03:22;;;;;;;4.47;3.55;;;;;;;;;;5022591;28;20185;-69
2023/12/28 02:05:49;;;;;;;5.18;3.40;;;;;;;;;;5021211;28;20182;-68
2023/12/28 02:08:15;;;;;;;5.90;3.33;;;;;;;;;;5021446;28;20187;-69
2023/12/28 02:10:41;;;;;;;5.20;3.50;;;;;;;;;;5022203;28;20181;-69
2023/12/28 02:13:07;;;;;;;4.43;3.00;;;;;;;;;;5021069;28;20471;-68
2023/12/28 02:15:33;;;;;;;7.90;4.00;;;;;;;;;;5021184;28;20211;-68
2023/12/28 02:18:05;;;;;;;4.57;2.83;;;;;;;;;;5021044;28;20464;-68
2023/12/28 02:20:32;;;;;;;3.30;2.42;;;;;;;;;;5021163;28;20208;-68
2023/12/28 02:22:59;;;;;;;3.95;2.90;;;;;;;;;;5022305;28;20183;-68
2023/12/28 02:25:25;;;;;;;3.28;2.40;;;;;;;;;;5022070;28;20207;-69
2023/12/28 02:27:51;;;;;;;5.72;3.60;;;;;;;;;;5021458;28;20206;-70
2023/12/28 02:30:18;;;;;;;4.73;2.80;;;;;;;;;;5023252;28;20340;-68
2023/12/28 02:33:03;;;;;;;3.65;2.10;;;;;;;;;;5024685;28;20993;-68
2023/12/28 02:35:29;;;;;;;6.20;3.25;;;;;;;;;;5022809;28;20181;-68
2023/12/28 02:37:56;;;;;;;3.80;2.57;;;;;;;;;;5024419;28;20681;-69
2023/12/28 02:40:22;;;;;;;4.32;2.40;;;;;;;;;;5023869;28;20460;-69
2023/12/28 02:42:48;;;;;;;3.13;2.28;;;;;;;;;;5026119;28;20264;-69
2023/12/28 02:45:14;;;;;;;3.85;2.67;;;;;;;;;;5023912;28;20186;-69
2023/12/28 02:47:40;;;;;;;5.20;1.83;;;;;;;;;;5022759;28;20198;-69
2023/12/28 02:50:07;;;;;;;3.40;1.90;;;;;;;;;;5022308;28;20964;-68
2023/12/28 02:52:33;;;;;;;3.05;2.22;;;;;;;;;;5021763;28;20516;-68
2023/12/28 02:54:58;;;;;;;3.97;2.25;;;3.70;22.60;;;;;;5022213;28;20185;-68
2023/12/28 02:57:24;;;;;;;3.00;1.83;;;3.80;1.00;;;;;;5022595;28;20679;-68
2023/12/28 02:59:49;;;;;;;7.37;2.43;;;4.10;1.00;;;;;;5023149;28;20193;-68
2023/12/28 03:02:15;;;;;;;5.07;1.87;;;4.20;1.00;;;;;;5024277;28;20193;-69
2023/12/28 03:04:41;;;;;;;3.17;2.13;;;4.30;1.00;;;;;;5022511;28;20572;-69
2023/12/28 03:07:08;;;;;;;4.47;2.33;;;4.30;1.00;;;;;;5021999;28;20249;-68
2023/12/28 03:09:34;;;;;;;7.03;2.00;;;4.40;1.00;;;;;;5025319;28;20893;-69
2023/12/28 03:12:00;;;;;;;4.20;2.33;;;4.40;1.00;;;;;;5027712;28;20410;-69
2023/12/28 03:14:26;;;;;;;3.10;2.00;;;4.30;1.00;;;;;;5027585;28;20551;-69
2023/12/28 03:16:51;;;;;;;3.50;1.67;;;4.20;1.00;;;;;;5028538;28;20450;-68
2023/12/28 03:19:17;;;;;;;4.60;2.07;;;4.00;1.00;;;;;;5028787;28;20203;-68
2023/12/28 03:21:43;;;;;;;3.63;2.63;;;4.00;1.00;;;;;;5027401;28;20217;-68
2023/12/28 03:24:08;;;;;;;4.00;2.27;;;4.10;1.00;;;;;;5029381;28;20421;-68
2023/12/28 03:26:38;;;;;;;4.67;2.80;;;4.10;1.00;;;;;;5026099;28;20497;-69
2023/12/28 03:29:05;;;;;;;3.23;1.77;;;4.10;1.00;;;;;;5023543;28;20180;-69
2023/12/28 03:31:31;;;;;;;2.45;1.65;;;4.20;1.00;;;;;;5023966;28;20441;-69
2023/12/28 03:33:57;;;;;;;5.50;2.50;;;4.10;1.00;;;;;;5020996;28;20207;-71
2023/12/28 03:36:23;;;;;;;3.87;1.80;;;4.20;1.00;;;;;;5021190;28;20199;-70
2023/12/28 03:38:48;;;;;;;3.20;1.80;;;4.20;1.00;;;;;;5021120;28;20181;-71
2023/12/28 03:41:18;;;;;;;4.27;2.30;;;4.30;1.00;;;;;;5020226;28;20421;-71
2023/12/28 03:43:48;;;;;;;4.00;2.40;;;4.40;1.00;;;;;;5020350;28;20186;-71
2023/12/28 03:46:16;;;;;;;4.28;2.00;;;4.30;1.00;;;;;;5020391;28;20820;-70
2023/12/28 03:48:42;;;;;;;2.93;1.90;;;4.40;1.00;;;;;;5019709;28;20186;-70
2023/12/28 03:51:13;;;;;;;2.50;1.40;;;4.30;1.00;;;;;;5017098;28;20991;-70
2023/12/28 03:53:38;;;;;;;3.60;2.10;;;4.30;1.00;;;;;;5017086;28;20299;-70
2023/12/28 03:56:04;;;;;;;3.50;1.90;;;4.30;1.00;;;;;;5017434;28;20472;-70
2023/12/28 03:58:29;;;;;;;3.10;1.57;;;4.20;1.00;;;;;;5017291;28;20210;-69
2023/12/28 04:00:55;;;;;;;3.23;2.03;;;4.20;1.00;;;;;;5016789;28;20233;-70
2023/12/28 04:03:20;;;;;;;5.17;1.90;;;4.20;1.00;;;;;;5017932;28;20270;-70
2023/12/28 04:05:47;;;;;;;3.30;1.70;;;4.10;1.00;;;;;;5016512;28;20189;-70
2023/12/28 04:08:12;;;;;;;3.77;2.20;;;4.00;1.00;;;;;;5017833;28;20190;-70
2023/12/28 04:10:38;;;;;;;4.60;2.43;;;4.00;1.00;;;;;;5016844;28;20417;-70
2023/12/28 04:13:03;;;;;;;3.10;1.67;;;4.10;1.00;;;;;;5015914;28;20202;-69
2023/12/28 04:15:30;;;;;;;4.13;2.50;;;4.10;1.00;;;;;;5016964;28;20184;-70
2023/12/28 04:17:56;;;;;;;3.33;1.60;;;4.10;1.00;;;;;;5015372;28;20206;-70
2023/12/28 04:20:22;;;;;;;2.87;2.00;;;4.10;1.00;;;;;;5015552;28;20413;-69
2023/12/28 04:22:47;;;;;;;3.63;2.50;;;4.20;1.00;;;;;;5016611;28;20844;-70
2023/12/28 04:25:13;;;;;;;3.83;2.10;;;4.10;1.00;;;;;;5016402;28;20427;-71
2023/12/28 04:27:39;;;;;;;2.33;1.37;;;4.10;1.00;;;;;;5015878;28;20206;-71
2023/12/28 04:30:05;;;;;;;3.53;1.90;;;4.10;1.00;;;;;;5016776;28;20212;-71
2023/12/28 04:32:32;;;;;;;2.73;1.90;;;4.10;1.00;;;;;;5018917;28;20266;-69
2023/12/28 04:34:58;;;;;;;3.27;1.80;;;4.10;1.00;;;;;;5018496;28;20416;-69
2023/12/28 04:37:23;;;;;;;2.97;1.77;;;4.10;1.00;;;;;;5019991;28;20797;-69
2023/12/28 04:39:49;;;;;;;2.47;1.57;;;4.20;1.00;;;;;;5019489;28;20681;-69
2023/12/28 04:42:15;;;;;;;2.57;1.63;;;4.20;1.00;;;;;;5020783;28;20506;-69
2023/12/28 04:44:40;;;;;;;3.57;2.40;;;4.20;1.00;;;;;;5025740;28;20186;-69
2023/12/28 04:47:06;;;;;;;3.03;1.80;;;4.30;1.00;;;;;;5027044;28;20233;-69
2023/12/28 04:49:32;;;;;;;3.97;1.97;;;4.40;1.00;;;;;;5024881;28;20187;-69
2023/12/28 04:51:57;;;;;;;3.80;1.93;;;4.80;1.00;;;;;;5026009;28;20182;-69
2023/12/28 04:54:23;;;;;;;2.40;1.20;;;4.50;1.00;;;;;;5024565;28;20673;-69
2023/12/28 04:56:49;;;;;;;2.00;1.43;;;4.60;1.00;;;;;;5024597;28;20209;-70
2023/12/28 04:59:15;;;;;;;3.70;2.20;;;4.70;1.00;;;;;;5024788;28;20186;-68
2023/12/28 05:01:44;;;;;;;4.03;1.70;;;4.90;1.00;;;;;;5024766;28;20605;-69
2023/12/28 05:04:10;;;;;;;2.90;1.67;;;5.00;1.00;;;;;;5022738;28;20562;-69
2023/12/28 05:06:36;;;;;;;1.80;1.10;;;5.00;1.00;;;;;;5024062;28;20458;-69
2023/12/28 05:09:01;;;;;;;2.17;1.40;;;5.20;1.00;;;;;;5023114;28;20505;-70
2023/12/28 05:11:27;;;;;;;2.17;1.50;;;5.60;1.00;;;;;;5023043;28;20594;-70
2023/12/28 05:13:53;;;;;;;2.50;1.40;;;;;;;;;;5021490;28;20215;-69
2023/12/28 05:16:19;;;;;;;3.40;1.40;;;;;;;;;;5023059;28;20695;-70
2023/12/28 05:18:46;;;;;;;2.70;1.73;;;;;;;;;;5021620;28;20474;-70
2023/12/28 05:21:15;;;;;;;2.53;1.57;;;;;;;;;;5021873;28;20424;-69
2023/12/28 05:23:41;;;;;;;3.17;1.30;;;;;;;;;;5020399;28;20716;-70
2023/12/28 05:26:07;;;;;;;2.33;1.50;;;;;;;;;;5018327;28;20454;-70
2023/12/28 05:28:33;;;;;;;3.83;1.80;;;;;;;;;;5020660;28;20443;-70
2023/12/28 05:30:59;;;;;;;3.10;2.03;;;;;;;;;;5020914;28;20511;-70
2023/12/28 05:33:25;;;;;;;3.40;1.40;;;;;;;;;;5021075;28;20774;-70
2023/12/28 05:35:51;;;;;;;2.57;1.87;;;;;;;;;;5022081;28;20508;-69
2023/12/28 05:38:18;;;;;;;4.97;1.57;;;;;;;;;;5020927;28;20422;-69
2023/12/28 05:40:47;;;;;;;1.90;1.30;;;;;;;;;;5022872;28;20764;-70
2023/12/28 05:43:13;;;;;;;2.93;1.70;;;;;;;;;;5027478;28;20413;-70
2023/12/28 05:45:39;;;;;;;2.87;1.60;;;;;;;;;;5025391;28;20452;-70
2023/12/28 05:48:05;;;;;;;2.33;1.60;;;;;;;;;;5027137;28;20445;-71
2023/12/28 05:50:31;;;;;;;2.50;1.60;;;;;;;;;;5025424;28;20429;-71
2023/12/28 05:52:57;;;;;;;2.93;1.57;;;;;;;;;;5027243;28;20516;-69
2023/12/28 05:55:23;;;;;;;2.83;1.67;;;;;;;;;;5022383;28;20500;-69
2023/12/28 05:57:50;;;;;;;5.90;2.50;;;;;;;;;;5028567;28;20428;-68
2023/12/28 06:00:16;;;;;;;3.00;2.13;;;;;;;;;;5023847;28;20412;-68
2023/12/28 06:02:42;;;;;;;2.90;1.70;;;;;;;;;;5020782;28;20435;-67
2023/12/28 06:05:08;;;;;;;2.30;1.50;;;;;;;;;;5020798;28;20416;-67
2023/12/28 06:07:34;;;;;;;2.80;2.00;;;;;;;;;;5020869;28;20824;-67
2023/12/28 06:10:00;;;;;;;3.20;2.50;;;;;;;;;;5021873;28;20507;-67
2023/12/28 06:12:26;;;;;;;2.40;1.90;;;;;;;;;;5021189;28;20416;-68
2023/12/28 06:14:52;;;;;;;4.70;3.03;;;;;;;;;;5021529;28;20413;-67
2023/12/28 06:17:18;;;;;;;3.33;1.87;;;;;;;;;;5020909;28;20472;-70
2023/12/28 06:19:44;;;;;;;3.10;1.80;;;;;;;;;;5020978;28;20967;-67
2023/12/28 06:22:11;;;;;;;2.53;1.40;;;;;;;;;;5020592;28;20476;-68
2023/12/28 06:24:40;;;;;;;3.33;1.80;;;;;;;;;;5021208;28;20418;-69
2023/12/28 06:27:06;;;;;;;2.47;1.53;;;;;;;;;;5018229;28;20872;-69
2023/12/28 06:29:32;;;;;;;2.70;1.97;;;;;;;;;;5020123;28;20426;-68
2023/12/28 06:31:58;;;;;;;4.50;1.70;;;;;;;;;;5019082;28;20484;-71
2023/12/28 06:34:25;;;;;;;2.67;1.47;;;;;;;;;;5020139;28;20477;-71
2023/12/28 06:36:51;;;;;;;2.30;1.37;;;;;;;;;;5019483;28;20578;-71
2023/12/28 06:39:17;;;;;;;3.40;1.67;;;;;;;;;;5018336;28;20934;-71
2023/12/28 06:41:43;;;;;;;2.70;1.53;;;;;;;;;;5021190;28;20410;-71
2023/12/28 06:44:13;;;;;;;3.23;1.27;;;;;;;;;;5020577;28;20425;-70
2023/12/28 06:46:39;;;;;;;2.90;1.87;;;;;;;;;;5022911;28;20450;-71
2023/12/28 06:49:05;;;;;;;2.10;1.50;;;;;;;;;;5024237;28;20424;-70
2023/12/28 06:51:32;;;;;;;2.47;1.53;;;;;;;;;;5021272;28;20429;-70
2023/12/28 06:53:59;;;;;;;3.10;1.53;;;;;;;;;;5021421;28;20458;-69
2023/12/28 06:56:25;;;;;;;3.07;1.40;;;;;;;;;;5023546;28;20430;-71
2023/12/28 06:58:51;;;;;;;4.47;1.43;;;;;;;;;;5022913;28;20414;-71
2023/12/28 07:01:17;;;;;;;2.37;1.60;;;;;;;;;;5022627;28;20417;-70
2023/12/28 07:03:43;;;;;;;4.37;1.40;;;;;;;;;;5019271;28;20427;-70
2023/12/28 07:08:37;;;;;;;2.17;1.53;;;;;;;;;;4955666;29;20474;-73
2023/12/28 07:11:03;;;;;;;2.47;1.43;;;;;;;;;;4956602;29;20855;-75
2023/12/28 07:13:29;;;;;;;7.70;2.30;;;;;;;;;;4956565;29;20461;-72
2023/12/28 07:15:55;;;;;;;2.67;1.70;;;;;;;;;;4956585;28;20445;-73
2023/12/28 07:18:21;;;;;;;4.27;2.03;;;;;;;;;;4938037;29;20461;-73
2023/12/28 07:20:48;;;;;;;5.50;2.50;;;;;;;;;;4937287;29;20419;-74
2023/12/28 07:23:14;;;;;;;6.70;1.70;;;;;;;;;;4937481;29;20438;-72
2023/12/28 07:25:40;;;;;;;4.23;1.57;;;;;;;;;;4937353;29;20418;-72
2023/12/28 07:28:06;;;;;;;3.30;1.77;;;;;;;;;;4936950;29;20508;-72
2023/12/28 07:30:32;;;;;;;3.87;1.97;;;;;;;;;;4937241;29;20423;-72
2023/12/28 07:32:58;;;;;;;2.50;1.60;;;;;;;;;;4937214;29;20458;-68
2023/12/28 07:35:24;;;;;;;4.83;2.03;;;;;;;;;;4937177;29;20465;-68
2023/12/28 07:37:50;;;;;;;4.10;2.50;;;;;;;;;;4946247;29;20441;-73
2023/12/28 07:40:16;;;;;;;5.10;2.57;;;;;;;;;;4939057;29;20898;-69
2023/12/28 07:42:42;;;;;;;2.60;2.10;;;;;;;;;;4939514;29;20564;-69
2023/12/28 07:45:08;;;;;;;4.70;2.73;;;;;;;;;;4939176;29;20485;-69
2023/12/28 07:47:34;;;;;;;2.70;1.93;;;;;;;;;;4938304;29;20437;-70
2023/12/28 07:50:00;;;;;;;4.37;2.00;;;;;;;;;;4937264;29;20418;-69
2023/12/28 07:52:26;;;;;;;4.77;2.53;;;;;;;;;;4937122;29;20449;-68
2023/12/28 07:54:52;;;;;;;3.23;1.83;;;;;;;;;;4936717;29;20466;-69
2023/12/28 07:57:18;;;;;;;3.10;1.90;;;;;;;;;;4938249;29;20927;-69
2023/12/28 07:59:44;;;;;;;3.90;2.83;;;;;;;;;;4938144;29;20415;-69
2023/12/28 08:02:10;;;;;;;2.90;2.20;;;10.10;1.00;;;;;;4937799;29;20418;-70
2023/12/28 08:04:35;;;;;;;3.37;2.20;;;10.10;1.00;;;;;;4918496;29;20507;-68
2023/12/28 08:07:01;;;;;;;3.80;2.60;;;10.20;1.00;;;;;;4935866;29;20617;-70
2023/12/28 08:09:26;;;;;;;3.30;2.20;;;10.30;1.00;;;;;;4936712;29;20186;-71
2023/12/28 08:11:52;;;;;;;4.30;2.40;;;10.30;1.00;;;;;;4937077;29;20191;-71
2023/12/28 08:14:19;;;;;;;5.30;2.60;;;10.30;1.10;;;;;;4951420;29;20225;-70
2023/12/28 08:16:44;;;;;;;4.20;2.40;;;;;;;;;;4936479;29;20202;-71
2023/12/28 08:19:12;;;;;;;3.40;3.00;;;;;;;;;;4936259;29;20417;-69
2023/12/28 08:21:38;;;;;;;5.47;2.80;;;;;;;;;;4936049;29;20521;-69
2023/12/28 08:24:04;;;;;;;5.13;2.90;;;;;;;;;;4932880;29;20533;-69
2023/12/28 08:26:30;;;;;;;4.67;2.70;;;;;;;;;;4917963;29;20537;-68
2023/12/28 08:28:56;;;;;;;7.07;3.70;;;;;;;;;;4915512;29;20466;-69
2023/12/28 08:31:22;;;;;;;14.23;10.23;;;;;;;;;;4934941;29;20519;-69
2023/12/28 08:33:48;;;;;;;7.83;7.03;;;;;;;;;;4936171;29;20897;-68
2023/12/28 08:36:15;;;;;;;6.67;4.90;;;;;;;;;;4950944;28;20498;-73
2023/12/28 08:38:41;;;;;;;8.23;3.60;;;;;;;;;;4951010;28;20968;-67
2023/12/28 08:41:08;;;;;;;4.23;2.77;;;;;;;;;;4935445;29;20418;-69
2023/12/28 08:43:36;;;;;;;4.53;3.50;;;;;;;;;;4922026;29;20418;-69
2023/12/28 08:46:02;;;;;;;4.70;3.23;;;;;;;;;;4935672;29;20918;-70
2023/12/28 08:48:28;;;;;;;4.47;2.87;;;;;;;;;;4935689;29;20477;-70
2023/12/28 08:50:54;;;;;;;5.30;3.47;;;;;;;;;;4935376;29;20411;-70
2023/12/28 08:53:20;;;;;;;6.23;4.80;;;;;;;;;;4935689;29;20450;-70
2023/12/28 08:55:46;;;;;;;5.30;3.80;;;;;;;;;;4930517;29;20502;-67
2023/12/28 08:58:12;;;;;;;11.80;4.50;;;;;;;;;;4917349;29;20447;-70
2023/12/28 09:00:38;;;;;;;9.43;3.60;;;;;;;;;;4914178;29;20412;-70
2023/12/28 09:03:04;;;;;;;5.40;4.53;;;;;;;;;;4916058;29;20898;-68
2023/12/28 09:05:30;;;;;;;7.03;4.20;;;;;;;;;;4916749;29;20412;-70
2023/12/28 09:07:56;;;;;;;3.70;3.00;;;;;;;;;;4915446;29;20463;-70
2023/12/28 09:10:23;;;;;;;5.73;3.20;;;;;;;;;;4916828;29;20437;-69
2023/12/28 09:12:49;;;;;;;5.60;3.63;;;;;;;;;;4916891;29;20470;-69
2023/12/28 09:15:15;;;;;;;9.07;3.17;;;;;;;;;;4916638;29;20416;-69
2023/12/28 09:17:41;;;;;;;5.17;3.47;;;;;;;;;;4916745;29;20548;-69
2023/12/28 09:20:08;;;;;;;4.27;3.10;;;;;;;;;;4916800;29;20413;-70
2023/12/28 09:22:34;;;;;;;4.00;2.90;;;;;;;;;;4915685;29;20507;-69
2023/12/28 09:25:00;;;;;;;5.73;3.50;;;;;;;;;;4916741;29;20841;-69
2023/12/28 09:27:25;;;;;;;3.87;2.80;;;10.80;13.70;;;;;;4916537;29;20472;-69
2023/12/28 09:29:51;;;;;;;3.57;3.10;;;10.80;1.00;;;;;;4916248;29;20934;-69
2023/12/28 09:32:17;;;;;;;4.10;3.77;;;10.90;1.00;;;;;;4916399;29;20187;-70
2023/12/28 09:34:43;;;;;;;3.87;3.10;;;10.90;1.00;;;;;;4916775;29;20215;-71
2023/12/28 09:37:08;;;;;;;9.73;5.70;;;10.80;1.00;;;;;;4916570;29;20582;-70
2023/12/28 09:39:34;;;;;;;5.47;3.70;;;10.80;1.00;;;;;;4916133;29;20180;-70
2023/12/28 09:42:03;;;;;;;3.80;3.30;;;10.90;1.00;;;;;;4930947;29;20631;-70
2023/12/28 09:44:30;;;;;;;5.20;2.53;;;10.80;1.00;;;;;;4916152;29;20195;-70
2023/12/28 09:46:57;;;;;;;5.23;3.13;;;10.90;1.00;;;;;;4916020;29;20451;-70
2023/12/28 09:49:23;;;;;;;3.27;2.43;;;10.90;1.00;;;;;;4916048;29;20415;-70
2023/12/28 09:51:48;;;;;;;2.50;2.03;;;11.00;1.00;;;;;;4915957;29;20517;-69
2023/12/28 09:54:14;;;;;;;4.13;2.70;;;11.00;1.00;;;;;;4915876;29;20705;-69
2023/12/28 09:56:40;;;;;;;4.10;2.03;;;11.00;1.00;;;;;;4930581;29;20694;-70
2023/12/28 09:59:07;;;;;;;4.03;2.50;;;11.10;1.00;;;;;;4915900;29;20213;-70
2023/12/28 10:01:35;;;;;;;3.33;2.50;;;11.10;1.00;;;;;;4915636;29;20415;-69
2023/12/28 10:04:03;;;;;;;5.40;2.37;;;11.10;1.00;;;;;;4914846;29;20927;-69
2023/12/28 10:06:28;;;;;;;3.10;2.20;;;11.20;1.00;;;;;;4915468;29;20439;-69
2023/12/28 10:08:55;;;;;;;3.93;2.80;;;11.30;1.00;;;;;;4916161;29;20426;-68
2023/12/28 10:11:22;;;;;;;4.37;2.80;;;11.40;1.00;;;;;;4916064;29;20207;-69
2023/12/28 10:13:49;;;;;;;3.30;2.40;;;;;;;;;;4914646;29;20463;-69
2023/12/28 10:16:16;;;;;;;4.40;3.30;;;;;;;;;;4915526;29;20462;-69
2023/12/28 10:18:44;;;;;;;4.00;3.00;;;;;;;;;;4915070;29;20411;-69
2023/12/28 10:21:11;;;;;;;4.30;3.20;;;;;;;;;;4915876;29;20420;-70
2023/12/28 10:23:37;;;;;;;6.00;2.57;;;;;;;;;;4916120;29;20419;-69
2023/12/28 10:26:04;;;;;;;4.90;3.43;;;;;;;;;;4916002;29;20829;-70
2023/12/28 10:28:34;;;;;;;4.10;3.13;;;;;;;;;;4914643;29;20463;-69
2023/12/28 10:31:01;;;;;;;3.83;2.60;;;;;;;;;;4915642;29;20424;-69
2023/12/28 10:33:27;;;;;;;3.50;2.60;;;;;;;;;;4915814;29;20456;-70
2023/12/28 10:35:53;;;;;;;3.90;3.00;;;;;;;;;;4915842;29;20461;-69
2023/12/28 10:38:20;;;;;;;2.63;2.27;;;;;;;;;;4915576;29;20440;-70
2023/12/28 10:40:48;;;;;;;3.23;2.57;;;;;;;;;;4914164;29;20434;-70
2023/12/28 10:43:17;;;;;;;4.33;2.63;;;;;;;;;;4915729;29;20972;-70
2023/12/28 10:45:47;;;;;;;4.37;3.53;;;;;;;;;;4914969;29;20855;-70
2023/12/28 10:48:13;;;;;;;3.97;2.90;;;;;;;;;;4914390;29;20535;-70
2023/12/28 10:50:47;;;;;;;3.50;2.43;;;;;;;;;;4915471;29;20894;-70
2023/12/28 10:53:19;;;;;;;3.37;2.50;;;;;;;;;;4914395;29;20518;-69
2023/12/28 10:55:54;;;;;;;2.80;2.10;;;;;;;;;;4915477;29;20415;-70
2023/12/28 10:58:27;;;;;;;5.93;3.00;;;;;;;;;;4914246;29;20450;-69
2023/12/28 11:00:57;;;;;;;3.70;2.10;;;;;;;;;;4915335;29;20429;-68
2023/12/28 11:03:27;;;;;;;3.67;2.30;;;;;;;;;;4914181;29;20423;-68
2023/12/28 11:05:53;;;;;;;2.27;1.93;;;;;;;;;;4914088;29;20415;-69
2023/12/28 11:08:20;;;;;;;6.43;1.97;;;;;;;;;;4915281;29;20828;-71
2023/12/28 11:10:46;;;;;;;2.57;2.27;;;;;;;;;;4914973;29;20981;-69
2023/12/28 11:13:13;;;;;;;3.67;2.17;;;;;;;;;;4915340;29;20533;-69
2023/12/28 11:15:39;;;;;;;3.40;1.77;;;;;;;;;;4915175;29;20433;-70
2023/12/28 11:18:05;;;;;;;3.07;2.43;;;;;;;;;;4915101;29;20431;-69
2023/12/28 11:20:31;;;;;;;2.23;1.93;;;;;;;;;;4915026;29;20782;-71
2023/12/28 11:22:57;;;;;;;4.47;2.40;;;;;;;;;;4915255;29;20418;-69
2023/12/28 11:25:23;;;;;;;2.20;1.50;;;;;;;;;;4914965;29;20445;-70
2023/12/28 11:27:49;;;;;;;3.27;2.00;;;;;;;;;;4913956;29;20447;-69
2023/12/28 11:30:15;;;;;;;5.70;2.40;;;;;;;;;;4916565;29;20431;-70
2023/12/28 11:32:45;;;;;;;2.60;1.83;;;;;;;;;;4918460;29;20848;-70
2023/12/28 11:35:14;;;;;;;2.53;1.90;;;;;;;;;;4918414;29;20423;-70
2023/12/28 11:37:41;;;;;;;2.90;1.83;;;;;;;;;;4918401;29;20463;-70
2023/12/28 11:40:15;;;;;;;2.23;1.60;;;;;;;;;;4917972;29;20419;-70
2023/12/28 11:42:51;;;;;;;4.50;1.80;;;;;;;;;;4916864;29;20459;-70
2023/12/28 11:45:18;;;;;;;2.83;1.97;;;;;;;;;;4918194;29;20411;-69
2023/12/28 11:47:44;;;;;;;3.03;2.30;;;;;;;;;;4918019;29;20459;-70
2023/12/28 11:50:12;;;;;;;3.30;1.50;;;;;;;;;;4917978;29;20418;-70
2023/12/28 11:52:38;;;;;;;4.83;2.37;;;;;;;;;;4918010;29;20475;-68
2023/12/28 11:55:04;;;;;;;3.17;2.17;;;;;;;;;;4918061;29;20416;-69
2023/12/28 11:57:31;;;;;;;3.07;1.97;;;;;;;;;;4918060;29;20439;-69
2023/12/28 11:59:58;;;;;;;4.60;2.30;;;;;;;;;;4916743;29;20419;-69
2023/12/28 12:02:24;;;;;;;3.17;2.80;;;;;;;;;;4918189;29;20482;-69
2023/12/28 12:04:50;;;;;;;4.93;2.40;;;;;;;;;;4918201;29;20415;-69
2023/12/28 12:07:16;;;;;;;3.27;1.80;;;;;;;;;;4918253;29;20855;-71
2023/12/28 12:09:43;;;;;;;2.97;2.10;;;;;;;;;;4921281;29;20423;-69
2023/12/28 12:12:09;;;;;;;2.57;1.60;;;;;;;;;;4925108;29;20423;-70
2023/12/28 12:14:35;;;;;;;3.40;2.37;;;;;;;;;;4925494;29;20491;-71
2023/12/28 12:17:01;;;;;;;2.73;1.80;;;;;;;;;;4925645;29;20451;-70
2023/12/28 12:19:28;;;;;;;3.73;2.50;;;;;;;;;;4923067;29;20412;-70
2023/12/28 12:21:54;;;;;;;3.03;2.30;;;;;;;;;;4918980;29;20445;-71
2023/12/28 12:24:20;;;;;;;2.63;2.40;;;;;;;;;;4918252;29;20927;-70
2023/12/28 12:26:46;;;;;;;2.50;2.13;;;;;;;;;;4917979;29;20502;-70
2023/12/28 12:29:14;;;;;;;3.70;2.07;;;;;;;;;;4916427;29;20426;-70
2023/12/28 12:31:41;;;;;;;4.10;2.13;;;;;;;;;;4917740;29;20475;-70
2023/12/28 12:34:08;;;;;;;5.03;2.23;;;;;;;;;;4917480;29;20469;-70
2023/12/28 12:36:34;;;;;;;4.10;2.13;;;;;;;;;;4917288;29;20465;-69
2023/12/28 12:39:00;;;;;;;4.13;2.07;;;;;;;;;;4917526;29;20422;-69
2023/12/28 12:41:27;;;;;;;3.07;2.30;;;;;;;;;;4916686;29;20452;-69
2023/12/28 12:43:56;;;;;;;3.13;2.60;;;;;;;;;;4917523;29;20410;-69
2023/12/28 12:46:23;;;;;;;4.57;2.77;;;;;;;;;;4917327;29;20442;-69
2023/12/28 12:48:58;;;;;;;2.30;1.57;;;;;;;;;;4917227;29;20774;-69
2023/12/28 12:51:27;;;;;;;2.73;1.90;;;;;;;;;;4915930;29;20477;-69
2023/12/28 12:53:57;;;;;;;3.10;2.03;;;;;;;;;;4917223;29;20833;-69
2023/12/28 12:56:25;;;;;;;4.27;2.30;;;;;;;;;;4917310;29;20542;-70
2023/12/28 12:58:51;;;;;;;4.50;2.60;;;;;;;;;;4917085;29;21019;-69
2023/12/28 13:01:17;;;;;;;3.37;2.07;;;;;;;;;;4916751;29;20498;-68
2023/12/28 13:03:43;;;;;;;4.30;2.60;;;;;;;;;;4916727;29;20497;-68
2023/12/28 13:06:09;;;;;;;6.20;2.50;;;;;;;;;;4916371;29;20955;-67
2023/12/28 13:08:35;;;;;;;4.20;2.50;;;;;;;;;;4916667;29;20463;-68
2023/12/28 13:11:01;;;;;;;3.77;2.63;;;;;;;;;;4916311;29;20453;-68
2023/12/28 13:13:27;;;;;;;6.00;3.77;;;;;;;;;;4916332;29;20465;-68
2023/12/28 13:15:53;;;;;;;5.33;3.13;;;;;;;;;;4915079;29;20835;-68
2023/12/28 13:18:19;;;;;;;5.43;2.33;;;;;;;;;;4916271;29;21007;-68
2023/12/28 13:20:45;;;;;;;3.60;2.20;;;;;;;;;;4916153;29;20477;-68
2023/12/28 13:23:11;;;;;;;2.70;1.83;;;;;;;;;;4916319;29;20428;-68
2023/12/28 13:25:37;;;;;;;8.00;2.80;;;;;;;;;;4916263;29;20433;-68
2023/12/28 13:28:03;;;;;;;3.20;2.00;;;;;;;;;;4916133;29;20485;-68
2023/12/28 13:30:29;;;;;;;3.60;2.33;;;;;;;;;;4915873;29;20455;-68
2023/12/28 13:32:56;;;;;;;3.50;1.40;;;;;;;;;;4915984;29;20492;-68
2023/12/28 13:35:22;;;;;;;4.00;2.37;;;;;;;;;;4915955;29;20459;-68
2023/12/28 13:37:48;;;;;;;3.47;2.37;;;;;;;;;;4916374;29;20795;-69
2023/12/28 13:40:15;;;;;;;4.20;3.20;;;;;;;;;;4914455;29;20419;-68
2023/12/28 13:42:41;;;;;;;5.00;3.10;;;;;;;;;;4916065;29;20410;-68
2023/12/28 13:45:07;;;;;;;4.17;2.57;;;;;;;;;;4915865;29;20487;-69
2023/12/28 13:47:34;;;;;;;4.37;2.70;;;;;;;;;;4916065;29;20473;-68
2023/12/28 13:49:59;;;;;;;3.50;2.40;;;;;;;;;;4915675;29;20471;-68
2023/12/28 13:52:25;;;;;;;4.33;2.30;;;;;;;;;;4915570;29;20421;-68
2023/12/28 13:54:51;;;;;;;5.43;2.73;;;;;;;;;;4915107;29;20475;-68
2023/12/28 13:57:17;;;;;;;3.57;2.30;;;;;;;;;;4916136;29;20530;-68
2023/12/28 13:59:43;;;;;;;7.40;3.37;;;;;;;;;;4915621;29;20417;-69
2023/12/28 14:02:10;;;;;;;4.27;2.07;;;;;;;;;;4915662;29;20418;-68
2023/12/28 14:04:36;;;;;;;3.03;1.90;;;;;;;;;;4914425;29;20430;-68
2023/12/28 14:07:03;;;;;;;6.57;2.20;;;;;;;;;;4914225;29;20453;-68
2023/12/28 14:09:30;;;;;;;4.63;2.40;;;;;;;;;;4915496;29;20897;-69
2023/12/28 14:11:56;;;;;;;4.43;2.17;;;;;;;;;;4915496;29;20424;-68
2023/12/28 14:14:22;;;;;;;2.73;1.70;;;;;;;;;;4915313;29;20501;-69